Time;durP1;ratioP1;P1;durP2;ratioP2;P2;SDS_P1;SDS_P2;PMS_P1;PMS_P2;Temp;Humidity;BMP_temperature;BMP_pressure;BME280_temperature;BME280_humidity;BME280_pressure;Samples;Min_cycle;Max_cycle;Signal;HPM_P1;HPM_P2
2021/01/17 00:00:46;;;;;;;27.30;15.40;;;7.60;39.40;;;;;;5053521;28;20475;-82
2021/01/17 00:03:12;;;;;;;31.77;17.67;;;7.20;43.10;;;;;;5054406;28;20453;-82
2021/01/17 00:05:39;;;;;;;28.03;17.17;;;7.20;42.40;;;;;;5052376;28;20446;-83
2021/01/17 00:08:10;;;;;;;39.20;20.37;;;7.00;38.20;;;;;;5052116;28;20434;-82
2021/01/17 00:10:37;;;;;;;37.50;19.73;;;6.10;37.70;;;;;;5056153;28;20503;-82
2021/01/17 00:13:06;;;;;;;34.53;20.00;;;5.20;39.20;;;;;;5056893;28;20429;-82
2021/01/17 00:15:33;;;;;;;40.33;20.50;;;5.10;42.60;;;;;;5055453;28;20473;-82
2021/01/17 00:17:59;;;;;;;38.47;20.77;;;4.70;40.30;;;;;;5055404;28;20460;-82
2021/01/17 00:20:26;;;;;;;38.47;19.97;;;4.70;41.50;;;;;;5055566;28;20470;-82
2021/01/17 00:22:54;;;;;;;36.57;19.47;;;4.20;41.30;;;;;;5055111;28;20449;-82
2021/01/17 00:25:22;;;;;;;36.63;19.40;;;4.70;44.50;;;;;;5051582;28;20498;-82
2021/01/17 00:27:50;;;;;;;41.77;20.83;;;4.90;45.80;;;;;;5048655;28;20476;-83
2021/01/17 00:30:21;;;;;;;38.77;20.57;;;4.80;41.50;;;;;;5048600;28;20453;-82
2021/01/17 00:32:51;;;;;;;38.60;21.77;;;4.00;42.40;;;;;;5048968;28;20460;-82
2021/01/17 00:35:18;;;;;;;35.67;20.60;;;3.90;42.00;;;;;;5049893;28;20460;-83
2021/01/17 00:37:45;;;;;;;34.03;21.17;;;3.90;45.40;;;;;;5048777;28;20798;-82
2021/01/17 00:40:13;;;;;;;35.87;20.57;;;4.10;43.30;;;;;;5050058;28;20470;-82
2021/01/17 00:42:46;;;;;;;37.63;21.10;;;4.90;47.20;;;;;;5051884;28;20433;-82
2021/01/17 00:45:17;;;;;;;36.03;19.50;;;5.20;46.50;;;;;;5047712;28;20463;-82
2021/01/17 00:47:45;;;;;;;37.03;19.83;;;5.30;43.60;;;;;;5045873;28;20481;-82
2021/01/17 00:50:13;;;;;;;32.93;17.27;;;5.40;46.60;;;;;;5048001;28;20458;-82
2021/01/17 00:52:39;;;;;;;37.47;19.47;;;5.60;46.00;;;;;;5049668;28;20449;-82
2021/01/17 00:55:07;;;;;;;36.63;20.47;;;6.00;46.80;;;;;;5049887;28;20445;-82
2021/01/17 00:57:34;;;;;;;33.70;19.40;;;6.40;45.30;;;;;;5047976;28;20465;-83
2021/01/17 01:00:00;;;;;;;36.50;18.93;;;6.30;41.30;;;;;;5047358;28;20469;-82
2021/01/17 01:02:27;;;;;;;36.97;19.90;;;6.20;42.30;;;;;;5049190;28;20437;-83
2021/01/17 01:04:54;;;;;;;35.27;18.87;;;6.20;43.30;;;;;;5050139;28;20441;-82
2021/01/17 01:07:21;;;;;;;35.50;19.40;;;6.20;43.60;;;;;;5049945;28;20481;-83
2021/01/17 01:09:47;;;;;;;32.63;18.00;;;6.10;40.30;;;;;;5050199;28;20476;-82
2021/01/17 01:12:14;;;;;;;29.30;16.20;;;6.20;43.60;;;;;;5050170;28;20462;-83
2021/01/17 01:14:41;;;;;;;33.17;19.03;;;6.60;45.70;;;;;;5049210;28;20464;-83
2021/01/17 01:17:07;;;;;;;32.87;17.63;;;6.10;38.20;;;;;;5049581;28;20468;-82
2021/01/17 01:19:34;;;;;;;30.80;16.20;;;5.70;41.00;;;;;;5049114;28;20464;-83
2021/01/17 01:22:03;;;;;;;39.50;19.93;;;5.80;44.60;;;;;;5051081;28;20445;-82
2021/01/17 01:24:31;;;;;;;30.97;18.00;;;6.40;42.70;;;;;;5049461;28;20455;-82
2021/01/17 01:26:57;;;;;;;27.23;14.90;;;6.40;41.60;;;;;;5049812;28;20491;-83
2021/01/17 01:29:24;;;;;;;34.33;17.80;;;6.40;45.40;;;;;;5049460;28;20504;-83
2021/01/17 01:31:51;;;;;;;34.70;19.30;;;6.00;42.00;;;;;;5049009;28;20439;-83
2021/01/17 01:34:17;;;;;;;33.40;17.20;;;6.40;44.10;;;;;;5048342;28;20795;-83
2021/01/17 01:36:45;;;;;;;31.67;17.77;;;7.00;43.00;;;;;;5047939;28;20483;-83
2021/01/17 01:39:13;;;;;;;34.87;18.37;;;7.00;44.30;;;;;;5048026;28;20458;-83
2021/01/17 01:41:42;;;;;;;32.93;18.43;;;6.50;42.30;;;;;;5047102;28;20447;-83
2021/01/17 01:44:10;;;;;;;37.47;20.23;;;6.00;38.80;;;;;;5046965;28;20455;-83
2021/01/17 01:46:40;;;;;;;35.10;18.77;;;5.80;40.00;;;;;;5047427;28;20480;-83
2021/01/17 01:49:08;;;;;;;31.73;17.97;;;6.00;44.60;;;;;;5047562;28;20453;-83
2021/01/17 01:51:36;;;;;;;32.63;19.10;;;6.40;41.70;;;;;;5052734;28;20451;-83
2021/01/17 01:54:03;;;;;;;30.60;16.83;;;6.10;43.50;;;;;;5052540;28;20466;-83
2021/01/17 01:56:31;;;;;;;31.13;18.20;;;6.10;43.10;;;;;;5047093;28;20454;-83
2021/01/17 01:58:57;;;;;;;33.20;18.07;;;6.30;42.20;;;;;;5049231;28;20482;-83
2021/01/17 02:01:25;;;;;;;28.47;15.50;;;6.80;43.80;;;;;;5052022;28;20466;-84
2021/01/17 02:03:53;;;;;;;34.00;18.73;;;6.90;42.90;;;;;;5052506;28;20447;-83
2021/01/17 02:06:20;;;;;;;41.37;19.63;;;7.10;41.10;;;;;;5053013;28;20466;-83
2021/01/17 02:09:22;;;;;;;33.37;18.57;;;7.20;39.90;;;;;;5053062;28;20450;-83
2021/01/17 02:12:01;;;;;;;33.87;18.90;;;6.80;40.40;;;;;;5053898;28;20437;-83
2021/01/17 02:14:40;;;;;;;31.07;17.17;;;6.40;41.30;;;;;;5053885;28;20441;-83
2021/01/17 02:17:09;;;;;;;36.10;18.43;;;6.10;42.20;;;;;;5053552;28;20423;-84
2021/01/17 02:19:44;;;;;;;32.10;17.43;;;6.70;42.80;;;;;;5052707;28;20496;-83
2021/01/17 02:22:12;;;;;;;37.10;19.50;;;6.60;42.00;;;;;;5053340;28;20425;-83
2021/01/17 02:24:50;;;;;;;30.40;16.73;;;6.40;40.60;;;;;;5052127;28;20442;-84
2021/01/17 02:27:17;;;;;;;38.83;19.90;;;7.10;43.10;;;;;;5052618;28;20452;-83
2021/01/17 02:29:47;;;;;;;33.37;18.57;;;6.30;40.80;;;;;;5052547;28;20457;-83
2021/01/17 02:32:16;;;;;;;26.57;15.20;;;6.70;43.10;;;;;;5051976;28;20485;-83
2021/01/17 02:34:43;;;;;;;42.20;20.93;;;7.10;44.60;;;;;;5052502;28;20447;-83
2021/01/17 02:37:24;;;;;;;33.60;19.10;;;6.60;41.60;;;;;;5052626;28;20446;-83
2021/01/17 02:39:59;;;;;;;38.13;19.00;;;7.20;40.40;;;;;;5054686;28;20462;-83
2021/01/17 02:42:26;;;;;;;27.40;15.27;;;7.50;44.40;;;;;;5056746;28;20448;-84
2021/01/17 02:44:52;;;;;;;29.73;18.20;;;7.80;43.00;;;;;;5057088;28;20444;-83
2021/01/17 02:47:19;;;;;;;31.00;17.70;;;7.70;41.70;;;;;;5057309;28;20504;-84
2021/01/17 02:49:46;;;;;;;35.90;18.70;;;7.90;41.30;;;;;;5057011;28;20485;-84
2021/01/17 02:52:12;;;;;;;28.83;17.53;;;8.10;42.00;;;;;;5055215;28;20444;-83
2021/01/17 02:54:41;;;;;;;34.00;18.90;;;7.80;41.70;;;;;;5053499;28;20448;-84
2021/01/17 02:57:10;;;;;;;24.90;14.67;;;7.50;39.90;;;;;;5053069;28;20449;-84
2021/01/17 02:59:43;;;;;;;28.97;16.67;;;7.70;42.60;;;;;;5059278;28;20534;-83
2021/01/17 03:02:14;;;;;;;38.27;18.57;;;7.80;42.10;;;;;;5059175;28;20425;-82
2021/01/17 03:04:46;;;;;;;30.30;17.90;;;8.20;43.00;;;;;;5059145;28;20436;-83
2021/01/17 03:07:14;;;;;;;31.60;17.23;;;8.10;41.30;;;;;;5058710;28;20464;-83
2021/01/17 03:09:42;;;;;;;35.43;19.43;;;8.00;40.20;;;;;;5059593;28;20492;-83
2021/01/17 03:12:09;;;;;;;30.20;17.90;;;7.30;40.60;;;;;;5060049;28;20443;-84
2021/01/17 03:14:37;;;;;;;23.80;14.33;;;7.40;43.30;;;;;;5059686;28;20472;-82
2021/01/17 03:17:05;;;;;;;33.93;18.60;;;7.50;41.90;;;;;;5059623;28;20429;-83
2021/01/17 03:19:31;;;;;;;32.90;16.90;;;7.00;39.90;;;;;;5058994;28;20517;-83
2021/01/17 03:21:58;;;;;;;39.27;20.87;;;6.80;39.90;;;;;;5058588;28;20436;-83
2021/01/17 03:24:25;;;;;;;39.03;20.80;;;6.30;40.30;;;;;;5058176;28;20429;-83
2021/01/17 03:26:51;;;;;;;37.23;18.83;;;6.10;39.90;;;;;;5058964;28;20475;-83
2021/01/17 03:29:19;;;;;;;38.50;20.50;;;6.20;41.70;;;;;;5058900;28;20431;-83
2021/01/17 03:31:46;;;;;;;43.33;21.70;;;6.20;42.20;;;;;;5059035;28;20459;-83
2021/01/17 03:34:13;;;;;;;33.00;19.97;;;6.40;41.80;;;;;;5058566;28;20446;-83
2021/01/17 03:36:39;;;;;;;39.57;20.57;;;6.60;43.60;;;;;;5058239;28;20481;-83
2021/01/17 03:39:06;;;;;;;29.83;16.00;;;6.80;39.70;;;;;;5057745;28;20478;-83
2021/01/17 03:41:33;;;;;;;35.37;19.87;;;6.60;45.30;;;;;;5057541;28;20444;-83
2021/01/17 03:44:00;;;;;;;38.17;20.47;;;6.60;41.50;;;;;;5057869;28;20433;-83
2021/01/17 03:46:28;;;;;;;26.87;14.47;;;6.20;40.30;;;;;;5058437;28;20491;-83
2021/01/17 03:48:54;;;;;;;33.00;17.73;;;6.50;43.60;;;;;;5057760;28;20463;-83
2021/01/17 03:51:21;;;;;;;35.77;19.87;;;7.00;42.80;;;;;;5058152;28;20465;-83
2021/01/17 03:53:47;;;;;;;35.87;20.03;;;7.20;41.30;;;;;;5058101;28;20429;-83
2021/01/17 03:56:14;;;;;;;32.30;16.77;;;7.00;40.40;;;;;;5058103;28;20454;-83
2021/01/17 03:58:40;;;;;;;31.97;17.13;;;7.40;43.90;;;;;;5057085;28;20449;-83
2021/01/17 04:01:07;;;;;;;32.17;17.50;;;8.00;43.20;;;;;;5057370;28;20457;-83
2021/01/17 04:03:34;;;;;;;33.80;18.33;;;8.30;43.00;;;;;;5056825;28;20437;-85
2021/01/17 04:06:01;;;;;;;30.77;17.77;;;8.40;41.20;;;;;;5057035;28;20835;-83
2021/01/17 04:08:27;;;;;;;31.97;18.83;;;8.40;41.00;;;;;;5057259;28;20432;-83
2021/01/17 04:10:54;;;;;;;35.60;18.80;;;8.00;40.80;;;;;;5056763;28;20477;-83
2021/01/17 04:13:20;;;;;;;33.37;16.53;;;7.90;43.30;;;;;;5057379;28;20449;-83
2021/01/17 04:15:47;;;;;;;24.17;14.57;;;8.20;43.60;;;;;;5056885;28;20447;-84
2021/01/17 04:18:13;;;;;;;36.03;20.83;;;8.30;42.60;;;;;;5057168;28;20437;-83
2021/01/17 04:20:42;;;;;;;30.30;15.87;;;8.40;42.20;;;;;;5056521;28;20464;-83
2021/01/17 04:23:08;;;;;;;35.50;18.03;;;8.60;42.00;;;;;;5056839;28;20464;-83
2021/01/17 04:25:35;;;;;;;31.57;17.73;;;8.40;40.60;;;;;;5056932;28;20429;-83
2021/01/17 04:28:02;;;;;;;29.37;17.10;;;8.30;39.90;;;;;;5056734;28;20981;-83
2021/01/17 04:30:34;;;;;;;33.37;19.27;;;7.70;40.10;;;;;;5056391;28;20521;-83
2021/01/17 04:33:01;;;;;;;36.20;21.50;;;7.50;39.60;;;;;;5057500;28;20436;-83
2021/01/17 04:35:28;;;;;;;33.30;17.50;;;7.10;40.30;;;;;;5056646;28;20477;-83
2021/01/17 04:37:57;;;;;;;42.60;21.10;;;7.10;41.70;;;;;;5055935;28;20455;-83
2021/01/17 04:40:24;;;;;;;33.80;17.90;;;7.10;39.30;;;;;;5056645;28;20470;-83
2021/01/17 04:43:01;;;;;;;37.27;20.20;;;6.90;41.80;;;;;;5056629;28;20431;-83
2021/01/17 04:45:27;;;;;;;31.10;15.87;;;6.80;40.10;;;;;;5056026;28;20496;-83
2021/01/17 04:47:55;;;;;;;36.40;19.30;;;6.70;42.20;;;;;;5055049;28;20486;-83
2021/01/17 04:50:22;;;;;;;36.97;21.53;;;6.90;42.80;;;;;;5055871;28;20466;-83
2021/01/17 04:52:59;;;;;;;39.83;19.67;;;7.40;43.00;;;;;;5055573;28;20794;-83
2021/01/17 04:55:27;;;;;;;30.83;18.50;;;8.00;44.10;;;;;;5055210;28;20452;-85
2021/01/17 04:58:05;;;;;;;35.97;19.00;;;8.40;41.80;;;;;;5055367;28;20442;-84
2021/01/17 05:00:33;;;;;;;32.23;18.80;;;8.40;40.80;;;;;;5055482;28;20547;-83
2021/01/17 05:03:17;;;;;;;32.77;18.83;;;8.50;42.30;;;;;;5054819;28;20449;-83
2021/01/17 05:05:53;;;;;;;27.37;15.47;;;8.60;40.90;;;;;;5054569;28;20447;-84
2021/01/17 05:08:43;;;;;;;33.80;18.63;;;8.80;41.80;;;;;;5054141;28;20507;-84
2021/01/17 05:11:22;;;;;;;31.20;19.47;;;8.60;40.60;;;;;;5053884;28;20472;-83
2021/01/17 05:13:53;;;;;;;31.10;18.23;;;8.30;41.70;;;;;;5053814;28;20425;-83
2021/01/17 05:16:23;;;;;;;26.93;15.50;;;8.50;42.20;;;;;;5053828;28;20418;-84
2021/01/17 05:18:52;;;;;;;34.80;18.93;;;8.40;42.90;;;;;;5054065;28;20476;-83
2021/01/17 05:21:21;;;;;;;27.97;15.67;;;8.50;41.90;;;;;;5054815;28;20468;-83
2021/01/17 05:23:48;;;;;;;34.90;17.80;;;8.60;42.70;;;;;;5053766;28;20426;-84
2021/01/17 05:26:15;;;;;;;34.27;19.10;;;8.60;42.10;;;;;;5053139;28;20535;-84
2021/01/17 05:28:42;;;;;;;25.13;15.30;;;8.70;43.00;;;;;;5052192;28;20441;-83
2021/01/17 05:31:08;;;;;;;43.90;25.07;;;8.90;42.60;;;;;;5051798;28;20461;-83
2021/01/17 05:33:35;;;;;;;49.90;24.20;;;9.10;41.00;;;;;;5051842;28;20464;-83
2021/01/17 05:36:02;;;;;;;39.73;22.67;;;8.60;39.50;;;;;;5052447;28;20441;-83
2021/01/17 05:38:28;;;;;;;42.23;20.90;;;7.70;38.20;;;;;;5052946;28;20529;-83
2021/01/17 05:40:55;;;;;;;42.97;22.00;;;6.60;39.80;;;;;;5052782;28;20478;-83
2021/01/17 05:43:22;;;;;;;41.03;22.27;;;6.10;41.00;;;;;;5051020;28;20459;-83
2021/01/17 05:45:49;;;;;;;36.40;20.20;;;6.20;41.60;;;;;;5050552;28;20472;-83
2021/01/17 05:48:16;;;;;;;39.83;20.43;;;6.10;41.80;;;;;;5049445;28;20505;-83
2021/01/17 05:50:45;;;;;;;32.67;20.97;;;6.30;42.20;;;;;;5048409;28;20459;-83
2021/01/17 05:53:12;;;;;;;35.83;19.60;;;6.40;41.90;;;;;;5047344;28;20458;-83
2021/01/17 05:55:40;;;;;;;41.53;22.53;;;6.10;43.60;;;;;;5045460;28;20935;-83
2021/01/17 05:58:29;;;;;;;35.97;18.07;;;6.30;44.20;;;;;;5045853;28;20445;-83
2021/01/17 06:00:57;;;;;;;38.33;20.00;;;6.30;43.60;;;;;;5045125;28;20474;-83
2021/01/17 06:03:26;;;;;;;38.90;21.40;;;5.90;44.00;;;;;;5045978;28;20933;-84
2021/01/17 06:05:59;;;;;;;31.87;17.37;;;6.30;44.60;;;;;;5045143;28;20456;-83
2021/01/17 06:08:26;;;;;;;34.30;19.27;;;6.70;44.60;;;;;;5043292;28;20503;-84
2021/01/17 06:10:55;;;;;;;31.00;18.40;;;6.70;44.40;;;;;;5042533;28;20481;-83
2021/01/17 06:13:23;;;;;;;37.00;20.73;;;7.30;45.00;;;;;;5040929;28;20448;-83
2021/01/17 06:15:50;;;;;;;36.87;21.10;;;7.40;41.90;;;;;;5045732;28;20473;-83
2021/01/17 06:18:19;;;;;;;41.60;21.70;;;7.50;41.40;;;;;;5054184;28;20456;-83
2021/01/17 06:20:46;;;;;;;35.80;21.07;;;7.60;41.50;;;;;;5054250;28;20639;-84
2021/01/17 06:23:19;;;;;;;40.10;20.73;;;7.20;42.10;;;;;;5053915;28;20442;-83
2021/01/17 06:25:46;;;;;;;35.77;19.27;;;7.10;41.10;;;;;;5054451;28;20425;-83
2021/01/17 06:28:14;;;;;;;37.00;19.47;;;6.80;42.20;;;;;;5049196;28;20479;-83
2021/01/17 06:30:41;;;;;;;30.87;17.67;;;7.00;42.50;;;;;;5038043;28;20470;-83
2021/01/17 06:33:20;;;;;;;42.23;22.40;;;7.30;44.30;;;;;;5037142;28;20449;-83
2021/01/17 06:35:47;;;;;;;31.77;18.00;;;7.70;41.30;;;;;;5038670;28;20511;-83
2021/01/17 06:38:18;;;;;;;33.17;17.57;;;7.50;43.30;;;;;;5038127;28;20458;-83
2021/01/17 06:40:46;;;;;;;27.47;16.00;;;7.40;43.80;;;;;;5037206;28;20448;-83
2021/01/17 06:43:16;;;;;;;37.30;20.27;;;8.50;45.70;;;;;;5037411;28;20511;-83
2021/01/17 06:45:45;;;;;;;31.17;17.33;;;9.00;42.70;;;;;;5036569;28;20461;-84
2021/01/17 06:48:22;;;;;;;36.13;19.13;;;9.30;43.00;;;;;;5037126;28;20496;-84
2021/01/17 06:50:48;;;;;;;32.90;18.93;;;9.10;41.80;;;;;;5034018;28;20520;-84
2021/01/17 06:53:22;;;;;;;35.63;20.07;;;8.50;40.80;;;;;;5041986;28;20475;-84
2021/01/17 06:55:48;;;;;;;34.57;19.67;;;8.70;39.60;;;;;;5044314;28;20548;-84
2021/01/17 06:58:17;;;;;;;37.77;20.83;;;8.30;40.60;;;;;;5044286;28;20948;-83
2021/01/17 07:00:45;;;;;;;31.47;18.70;;;8.00;40.10;;;;;;5044198;28;20577;-84
2021/01/17 07:03:16;;;;;;;39.10;21.37;;;8.10;42.40;;;;;;5034850;28;20457;-83
2021/01/17 07:06:10;;;;;;;38.37;21.53;;;8.30;42.10;;;;;;5034932;28;20446;-83
2021/01/17 07:08:51;;;;;;;36.13;20.57;;;8.40;42.00;;;;;;5032935;28;20461;-83
2021/01/17 07:11:48;;;;;;;38.20;20.33;;;8.20;41.20;;;;;;5034299;28;20855;-84
2021/01/17 07:14:17;;;;;;;39.17;23.67;;;8.10;41.40;;;;;;5047839;28;20543;-84
2021/01/17 07:16:49;;;;;;;39.53;21.73;;;7.40;39.20;;;;;;5052638;28;20786;-84
2021/01/17 07:19:21;;;;;;;39.70;23.63;;;7.30;40.00;;;;;;5035503;28;20489;-83
2021/01/17 07:21:50;;;;;;;44.63;24.20;;;7.40;42.40;;;;;;5033594;28;20409;-84
2021/01/17 07:24:21;;;;;;;45.50;24.77;;;7.60;42.00;;;;;;5033218;28;20444;-83
2021/01/17 07:27:18;;;;;;;50.03;27.77;;;7.80;42.70;;;;;;5036388;28;20535;-83
2021/01/17 07:29:49;;;;;;;45.67;24.80;;;7.70;40.60;;;;;;4994985;28;20840;-83
2021/01/17 07:32:34;;;;;;;53.33;29.17;;;7.80;44.00;;;;;;5041000;28;20429;-82
2021/01/17 07:35:08;;;;;;;49.97;26.57;;;7.50;41.40;;;;;;5056660;28;20463;-83
2021/01/17 07:37:39;;;;;;;46.33;23.67;;;7.50;40.30;;;;;;5064957;28;20453;-83
2021/01/17 07:40:08;;;;;;;40.77;22.90;;;7.40;44.10;;;;;;5038810;28;20472;-83
2021/01/17 07:42:36;;;;;;;46.70;24.30;;;7.60;43.70;;;;;;5043559;28;20467;-83
2021/01/17 07:45:14;;;;;;;41.97;23.17;;;7.70;43.10;;;;;;5057759;28;20814;-83
2021/01/17 07:47:43;;;;;;;48.13;26.13;;;7.80;43.10;;;;;;5058674;28;20473;-83
2021/01/17 07:50:11;;;;;;;50.80;25.83;;;7.40;40.20;;;;;;5063723;28;20510;-83
2021/01/17 07:52:43;;;;;;;45.67;24.53;;;7.50;41.50;;;;;;5065355;28;20445;-83
2021/01/17 07:55:12;;;;;;;38.10;21.73;;;7.30;42.30;;;;;;5053680;28;20866;-83
2021/01/17 07:57:44;;;;;;;43.93;24.33;;;7.70;42.70;;;;;;5050718;28;20463;-83
2021/01/17 08:00:13;;;;;;;39.37;23.17;;;8.10;43.00;;;;;;5040508;28;20473;-83
2021/01/17 08:02:40;;;;;;;45.73;24.33;;;8.40;42.50;;;;;;5048075;28;20534;-83
2021/01/17 08:05:07;;;;;;;48.80;26.70;;;8.40;39.30;;;;;;5060869;28;20475;-84
2021/01/17 08:07:34;;;;;;;39.70;23.23;;;8.20;41.90;;;;;;5060055;28;20541;-83
2021/01/17 08:10:03;;;;;;;37.40;20.63;;;8.40;41.70;;;;;;5059402;28;20530;-83
2021/01/17 08:12:34;;;;;;;48.50;24.10;;;8.60;42.50;;;;;;5052357;28;20889;-83
2021/01/17 08:15:33;;;;;;;43.13;24.20;;;8.90;41.10;;;;;;5038018;28;20461;-83
2021/01/17 08:18:00;;;;;;;44.20;25.33;;;8.80;39.00;;;;;;5028218;28;20444;-84
2021/01/17 08:20:31;;;;;;;45.80;27.10;;;8.10;38.60;;;;;;5039159;28;20496;-83
2021/01/17 08:23:03;;;;;;;50.30;27.70;;;7.50;39.40;;;;;;5038956;28;20437;-83
2021/01/17 08:25:54;;;;;;;127.07;58.53;;;7.10;41.10;;;;;;5037243;28;20516;-83
2021/01/17 08:28:45;;;;;;;52.20;28.70;;;7.30;43.60;;;;;;5049391;28;20555;-84
2021/01/17 08:31:34;;;;;;;60.33;28.30;;;7.30;41.30;;;;;;5058203;28;20472;-83
2021/01/17 08:34:16;;;;;;;54.13;28.80;;;6.80;40.90;;;;;;5058238;28;20894;-83
2021/01/17 08:36:43;;;;;;;44.67;25.73;;;6.50;41.70;;;;;;5057333;28;20416;-83
2021/01/17 08:39:11;;;;;;;50.70;26.77;;;6.20;42.40;;;;;;5058489;28;20481;-83
2021/01/17 08:41:41;;;;;;;52.47;25.57;;;6.20;42.60;;;;;;5059601;28;20450;-83
2021/01/17 08:44:09;;;;;;;48.57;25.70;;;6.00;43.30;;;;;;5059221;28;20450;-83
2021/01/17 08:46:40;;;;;;;48.20;26.47;;;6.00;43.10;;;;;;5059655;28;20454;-83
2021/01/17 08:49:08;;;;;;;44.23;24.73;;;5.70;43.70;;;;;;5059754;28;20474;-83
2021/01/17 08:51:36;;;;;;;48.37;26.77;;;5.90;44.10;;;;;;5058860;28;20429;-83
2021/01/17 08:54:29;;;;;;;47.77;25.60;;;5.90;44.20;;;;;;5060636;28;20451;-83
2021/01/17 08:56:56;;;;;;;47.73;26.40;;;6.00;43.60;;;;;;5058478;28;20450;-83
2021/01/17 08:59:35;;;;;;;53.83;28.87;;;5.80;44.20;;;;;;5059115;28;20484;-83
2021/01/17 09:02:02;;;;;;;52.47;28.30;;;6.10;44.00;;;;;;5058413;28;20449;-83
2021/01/17 09:04:29;;;;;;;48.30;25.47;;;6.30;43.80;;;;;;5059286;28;20447;-84
2021/01/17 09:06:57;;;;;;;50.60;26.60;;;6.40;43.60;;;;;;5060664;28;20644;-84
2021/01/17 09:09:25;;;;;;;51.00;25.80;;;6.40;43.20;;;;;;5065471;28;20474;-83
2021/01/17 09:11:52;;;;;;;48.83;24.87;;;6.40;43.50;;;;;;5067632;28;20430;-84
2021/01/17 09:14:25;;;;;;;49.07;26.10;;;6.60;43.10;;;;;;5068201;28;20473;-85
2021/01/17 09:16:54;;;;;;;45.67;23.37;;;6.40;43.50;;;;;;5062615;28;20436;-84
2021/01/17 09:19:24;;;;;;;45.40;25.40;;;6.50;44.00;;;;;;5060027;28;20456;-83
2021/01/17 09:21:53;;;;;;;38.70;22.63;;;6.50;44.00;;;;;;5061502;28;20447;-84
2021/01/17 09:24:21;;;;;;;40.33;23.07;;;6.60;43.70;;;;;;5059426;28;20521;-84
2021/01/17 09:26:49;;;;;;;46.10;25.20;;;6.40;43.90;;;;;;5060324;28;20476;-84
2021/01/17 09:29:31;;;;;;;42.73;24.40;;;6.60;44.10;;;;;;5058877;28;20462;-83
2021/01/17 09:32:01;;;;;;;52.10;28.93;;;6.90;43.50;;;;;;5060485;28;20438;-84
2021/01/17 09:34:31;;;;;;;51.27;26.53;;;6.90;43.20;;;;;;5063581;28;20442;-84
2021/01/17 09:37:00;;;;;;;58.30;31.47;;;6.80;43.30;;;;;;5064883;28;20470;-83
2021/01/17 09:39:35;;;;;;;52.50;26.93;;;6.80;43.60;;;;;;5062742;28;20478;-83
2021/01/17 09:42:04;;;;;;;63.07;31.33;;;7.00;42.70;;;;;;5056739;28;20893;-84
2021/01/17 09:44:34;;;;;;;51.10;27.27;;;7.00;43.10;;;;;;5056774;28;20527;-83
2021/01/17 09:47:01;;;;;;;58.13;29.63;;;6.70;43.70;;;;;;5057101;28;20483;-84
2021/01/17 09:49:31;;;;;;;60.37;32.57;;;6.70;43.70;;;;;;5057424;28;20473;-83
2021/01/17 09:51:58;;;;;;;60.83;32.07;;;6.70;43.70;;;;;;5056888;28;20430;-84
2021/01/17 09:54:25;;;;;;;54.03;25.73;;;6.60;45.10;;;;;;5056175;28;20490;-84
2021/01/17 09:56:51;;;;;;;35.93;19.13;;;6.80;44.00;;;;;;5057071;28;20843;-85
2021/01/17 09:59:21;;;;;;;40.47;20.83;;;6.80;44.00;;;;;;5056932;28;20479;-84
2021/01/17 10:01:51;;;;;;;37.40;19.80;;;6.90;44.30;;;;;;5057089;28;20516;-83
2021/01/17 10:04:28;;;;;;;35.23;20.20;;;6.90;44.30;;;;;;5056345;28;20505;-84
2021/01/17 10:06:57;;;;;;;33.80;19.87;;;6.80;44.60;;;;;;5055706;28;20475;-84
2021/01/17 10:09:25;;;;;;;34.60;18.97;;;6.80;45.00;;;;;;5056266;28;20554;-84
2021/01/17 10:11:57;;;;;;;35.37;19.10;;;6.80;44.60;;;;;;5056611;28;20859;-84
2021/01/17 10:14:25;;;;;;;38.20;21.07;;;7.00;45.30;;;;;;5057331;28;20436;-84
2021/01/17 10:16:54;;;;;;;41.30;20.40;;;7.20;45.20;;;;;;5056847;28;20447;-84
2021/01/17 10:19:28;;;;;;;44.57;20.63;;;7.10;44.50;;;;;;5056251;28;20968;-83
2021/01/17 10:21:57;;;;;;;48.53;22.73;;;6.90;45.10;;;;;;5057050;28;20538;-84
2021/01/17 10:24:25;;;;;;;40.80;19.90;;;7.10;45.10;;;;;;5056922;28;20440;-83
2021/01/17 10:26:54;;;;;;;34.50;19.03;;;7.60;45.60;;;;;;5057007;28;20994;-83
2021/01/17 10:29:22;;;;;;;27.50;16.43;;;7.50;43.90;;;;;;5055399;28;20804;-85
2021/01/17 10:31:53;;;;;;;30.43;17.40;;;7.90;47.40;;;;;;5053263;28;20585;-85
2021/01/17 10:34:33;;;;;;;30.63;18.03;;;8.70;46.10;;;;;;5053086;28;20942;-85
2021/01/17 10:37:02;;;;;;;28.57;17.27;;;9.60;43.50;;;;;;5053371;28;20424;-85
2021/01/17 10:39:29;;;;;;;24.27;15.10;;;10.00;40.80;;;;;;5053679;28;20479;-85
2021/01/17 10:42:08;;;;;;;28.90;17.63;;;10.30;41.50;;;;;;5053668;28;20429;-85
2021/01/17 10:44:41;;;;;;;31.50;17.00;;;10.30;39.70;;;;;;5053258;28;20432;-85
2021/01/17 10:47:25;;;;;;;33.00;17.53;;;10.30;39.20;;;;;;5053049;28;20456;-85
2021/01/17 10:49:57;;;;;;;29.53;17.13;;;10.30;40.00;;;;;;5053338;28;20500;-85
2021/01/17 10:52:27;;;;;;;26.90;15.67;;;10.30;39.70;;;;;;5053333;28;20413;-85
2021/01/17 10:54:55;;;;;;;32.60;16.93;;;10.50;39.60;;;;;;5053524;28;20918;-85
2021/01/17 10:57:22;;;;;;;30.70;17.87;;;10.60;38.60;;;;;;5053779;28;20475;-86
2021/01/17 10:59:51;;;;;;;31.37;17.60;;;9.50;40.10;;;;;;5053191;28;20469;-85
2021/01/17 11:02:23;;;;;;;27.23;16.93;;;9.00;41.50;;;;;;5057631;28;20445;-84
2021/01/17 11:04:50;;;;;;;27.67;16.50;;;8.70;42.40;;;;;;5057735;28;20483;-85
2021/01/17 11:07:20;;;;;;;25.43;15.20;;;8.30;43.30;;;;;;5057528;28;20483;-85
2021/01/17 11:09:47;;;;;;;25.10;16.20;;;8.20;43.60;;;;;;5057455;28;20779;-84
2021/01/17 11:12:13;;;;;;;24.67;15.23;;;8.20;43.70;;;;;;5056968;28;20989;-85
2021/01/17 11:14:40;;;;;;;22.17;13.87;;;8.00;44.70;;;;;;5056973;28;20497;-85
2021/01/17 11:17:07;;;;;;;23.03;14.40;;;7.80;45.30;;;;;;5057280;28;20448;-85
2021/01/17 11:19:36;;;;;;;24.20;15.03;;;7.90;45.30;;;;;;5056933;28;20482;-85
2021/01/17 11:22:03;;;;;;;25.20;13.60;;;7.80;45.20;;;;;;5056751;28;20481;-85
2021/01/17 11:24:34;;;;;;;23.77;12.87;;;7.80;45.70;;;;;;5057002;28;20945;-85
2021/01/17 11:27:12;;;;;;;23.50;11.90;;;7.70;45.50;;;;;;5056682;28;20475;-84
2021/01/17 11:29:40;;;;;;;21.17;12.70;;;7.90;45.80;;;;;;5058625;28;20475;-84
2021/01/17 11:32:07;;;;;;;21.83;13.40;;;8.00;45.40;;;;;;5063652;28;20510;-86
2021/01/17 11:34:37;;;;;;;22.40;11.90;;;8.10;45.50;;;;;;5063297;28;20448;-83
2021/01/17 11:37:04;;;;;;;21.30;12.50;;;8.10;44.70;;;;;;5066602;28;20500;-83
2021/01/17 11:39:31;;;;;;;15.50;9.77;;;7.90;45.50;;;;;;5067029;28;20594;-83
2021/01/17 11:41:58;;;;;;;13.60;8.23;;;8.10;45.00;;;;;;5062053;28;20441;-83
2021/01/17 11:44:26;;;;;;;13.77;8.60;;;8.20;44.80;;;;;;5058412;28;20530;-83
2021/01/17 11:46:54;;;;;;;14.30;9.40;;;8.20;44.70;;;;;;5068151;28;20452;-84
2021/01/17 11:49:26;;;;;;;12.70;9.17;;;8.00;46.00;;;;;;5067302;28;20445;-84
2021/01/17 11:51:54;;;;;;;11.07;8.20;;;8.20;44.80;;;;;;5060368;28;20456;-84
2021/01/17 11:54:24;;;;;;;12.63;8.07;;;8.20;45.70;;;;;;5058092;28;20559;-84
2021/01/17 11:57:01;;;;;;;12.30;8.00;;;8.20;44.50;;;;;;5060244;28;20444;-83
2021/01/17 11:59:29;;;;;;;16.57;8.97;;;8.20;44.80;;;;;;5057739;28;20542;-83
2021/01/17 12:01:56;;;;;;;12.07;8.40;;;8.10;45.20;;;;;;5063554;28;20472;-84
2021/01/17 12:04:26;;;;;;;13.83;9.30;;;8.20;45.20;;;;;;5063158;28;20476;-83
2021/01/17 12:07:08;;;;;;;16.30;10.97;;;8.20;44.80;;;;;;5059750;28;20869;-84
2021/01/17 12:10:04;;;;;;;18.47;11.67;;;8.50;44.50;;;;;;5060520;28;20479;-84
2021/01/17 12:12:34;;;;;;;16.40;10.67;;;8.60;44.10;;;;;;4974551;28;20820;-87
2021/01/17 12:15:01;;;;;;;19.17;12.60;;;8.40;44.30;;;;;;4977507;28;20447;-85
2021/01/17 12:17:28;;;;;;;20.63;12.80;;;8.50;44.40;;;;;;4977259;28;20439;-86
2021/01/17 12:19:54;;;;;;;16.27;10.73;;;8.30;44.90;;;;;;4976485;28;20851;-85
2021/01/17 12:22:21;;;;;;;25.90;10.60;;;8.50;44.10;;;;;;4976391;28;20436;-84
2021/01/17 12:24:48;;;;;;;26.60;14.67;;;8.60;44.50;;;;;;4976174;28;20435;-85
2021/01/17 12:27:14;;;;;;;32.70;17.73;;;8.60;44.30;;;;;;4977245;28;20526;-85
2021/01/17 12:29:41;;;;;;;18.83;11.47;;;8.60;44.60;;;;;;4976185;28;20595;-85
2021/01/17 12:32:08;;;;;;;23.00;11.23;;;8.50;44.30;;;;;;4976367;28;20566;-84
2021/01/17 12:34:34;;;;;;;17.77;12.33;;;8.80;44.00;;;;;;4976730;28;20818;-85
2021/01/17 12:37:01;;;;;;;23.47;14.70;;;8.90;43.50;;;;;;4976608;28;20467;-84
2021/01/17 12:39:28;;;;;;;22.90;14.10;;;8.90;43.40;;;;;;4976188;28;20960;-85
2021/01/17 12:41:57;;;;;;;28.53;16.23;;;8.80;43.40;;;;;;4976555;28;20869;-85
2021/01/17 12:44:24;;;;;;;30.90;17.73;;;8.90;43.40;;;;;;4976419;28;20466;-85
2021/01/17 12:46:50;;;;;;;24.50;15.30;;;9.00;43.40;;;;;;4975935;28;20483;-85
2021/01/17 12:49:18;;;;;;;22.67;14.13;;;8.80;43.50;;;;;;4976278;28;20791;-84